createdAt,value
2019-05-03T00:00:22.019Z,101.33
2019-05-03T00:03:06.631Z,104.33
2019-05-03T00:05:52.478Z,95.40
2019-05-03T00:08:21.793Z,134.43
2019-05-03T00:10:51.781Z,54.10
2019-05-03T00:13:21.893Z,50.33
2019-05-03T00:16:13.999Z,203.27
2019-05-03T00:18:43.314Z,241.10
2019-05-03T00:21:15.200Z,200.90
2019-05-03T00:23:44.440Z,96.50
2019-05-03T00:26:13.652Z,76.40
2019-05-03T00:28:42.756Z,39.30
2019-05-03T00:31:12.502Z,48.33
2019-05-03T00:33:44.005Z,98.70
2019-05-03T00:36:27.435Z,68.90
2019-05-03T00:39:01.934Z,54.83
2019-05-03T00:41:32.032Z,61.13
2019-05-03T00:44:04.331Z,43.50
2019-05-03T00:46:35.953Z,44.37
2019-05-03T00:49:05.032Z,44.10
2019-05-03T00:51:37.241Z,45.83
2019-05-03T00:54:07.634Z,46.30
2019-05-03T00:56:36.825Z,50.97
2019-05-03T00:59:05.835Z,45.83
2019-05-03T01:01:36.636Z,56.63
2019-05-03T01:04:05.681Z,47.77
2019-05-03T01:06:34.838Z,94.67
2019-05-03T01:09:06.984Z,61.87
2019-05-03T01:11:38.495Z,51.60
2019-05-03T01:14:07.572Z,98.87
2019-05-03T01:16:38.952Z,82.10
2019-05-03T01:19:08.242Z,57.03
2019-05-03T01:21:37.515Z,52.50
2019-05-03T01:24:07.037Z,56.53
2019-05-03T01:26:36.727Z,86.20
2019-05-03T01:29:06.531Z,72.40
2019-05-03T01:31:37.839Z,55.83
2019-05-03T01:34:06.750Z,60.83
2019-05-03T01:36:35.889Z,49.70
2019-05-03T01:39:06.344Z,55.60
2019-05-03T01:41:35.297Z,54.80
2019-05-03T01:44:04.562Z,59.90
2019-05-03T01:46:33.624Z,50.10
2019-05-03T01:49:27.089Z,84.40
2019-05-03T01:52:18.312Z,59.70
2019-05-03T01:54:47.190Z,54.43
2019-05-03T01:57:17.668Z,44.73
2019-05-03T01:59:46.716Z,46.47
2019-05-03T02:02:34.798Z,48.83
2019-05-03T02:05:22.445Z,52.17
2019-05-03T02:07:52.491Z,54.70
2019-05-03T02:10:22.677Z,52.53
2019-05-03T02:12:52.305Z,48.77
2019-05-03T02:15:22.166Z,49.47
2019-05-03T02:17:55.010Z,45.13
2019-05-03T02:20:23.988Z,51.47
2019-05-03T02:22:53.070Z,49.60
2019-05-03T02:25:22.192Z,49.93
2019-05-03T02:27:52.683Z,52.63
2019-05-03T02:30:24.953Z,52.10
2019-05-03T02:32:54.293Z,52.37
2019-05-03T02:35:23.311Z,56.20
2019-05-03T02:37:54.636Z,65.43
2019-05-03T02:40:25.346Z,59.67
2019-05-03T02:43:19.741Z,57.47
2019-05-03T02:46:01.144Z,61.73
2019-05-03T02:48:47.823Z,54.07
2019-05-03T02:51:16.889Z,52.10
2019-05-03T02:53:45.989Z,55.37
2019-05-03T02:56:21.967Z,49.43
2019-05-03T02:58:46.145Z,54.10
2019-05-03T03:01:16.313Z,53.43
2019-05-03T03:03:45.986Z,54.53
2019-05-03T03:06:15.695Z,53.37
2019-05-03T03:08:46.238Z,62.00
2019-05-03T03:11:19.371Z,75.63
2019-05-03T03:13:48.404Z,121.47
2019-05-03T03:16:20.678Z,66.40
2019-05-03T03:18:50.130Z,72.47
2019-05-03T03:21:21.794Z,150.63
2019-05-03T03:23:57.766Z,100.33
2019-05-03T03:26:37.651Z,71.63
2019-05-03T03:29:05.613Z,303.20
2019-05-03T03:31:58.085Z,110.77
2019-05-03T03:34:27.875Z,269.70
2019-05-03T03:37:03.758Z,96.33
2019-05-03T03:39:28.334Z,721.77
2019-05-03T03:41:57.600Z,234.10
2019-05-03T03:44:27.101Z,124.07
2019-05-03T03:46:57.925Z,237.97
2019-05-03T03:49:28.858Z,423.47
2019-05-03T03:52:00.421Z,350.40
2019-05-03T03:54:35.275Z,344.43
2019-05-03T03:57:07.893Z,667.00
2019-05-03T03:59:36.424Z,619.07
2019-05-03T04:02:05.952Z,843.63
2019-05-03T04:04:35.743Z,348.33
2019-05-03T04:07:06.618Z,499.90
2019-05-03T04:09:36.809Z,329.03
2019-05-03T04:12:06.296Z,372.10
2019-05-03T04:15:00.776Z,582.97
2019-05-03T04:17:58.062Z,220.30
2019-05-03T04:20:30.614Z,639.70
2019-05-03T04:22:59.599Z,552.63
2019-05-03T04:25:29.175Z,465.60
2019-05-03T04:27:58.205Z,483.53
2019-05-03T04:30:28.645Z,652.00
2019-05-03T04:32:57.682Z,506.47
2019-05-03T04:35:26.975Z,496.73
2019-05-03T04:37:56.205Z,445.23
2019-05-03T04:40:26.071Z,245.97
2019-05-03T04:42:55.785Z,97.00
2019-05-03T04:45:25.761Z,168.80
2019-05-03T04:47:56.037Z,39.17
2019-05-03T04:50:25.924Z,37.93
2019-05-03T04:52:56.667Z,25.20
2019-05-03T04:55:27.675Z,42.07
2019-05-03T04:57:56.644Z,34.73
2019-05-03T05:00:29.767Z,21.83
2019-05-03T05:03:00.032Z,23.00
2019-05-03T05:05:29.094Z,18.70
2019-05-03T05:07:59.185Z,21.33
2019-05-03T05:10:28.459Z,19.53
2019-05-03T05:12:58.673Z,17.47
2019-05-03T05:15:27.553Z,48.20
2019-05-03T05:18:16.022Z,13.00
2019-05-03T05:20:51.740Z,15.10
2019-05-03T05:23:21.760Z,17.97
2019-05-03T05:25:56.549Z,18.80
2019-05-03T05:28:48.984Z,13.67
2019-05-03T05:31:17.950Z,17.23
2019-05-03T05:33:47.726Z,19.90
2019-05-03T05:36:16.881Z,15.23
2019-05-03T05:38:45.847Z,15.53
2019-05-03T05:41:15.643Z,13.43
2019-05-03T05:43:44.855Z,15.80
2019-05-03T05:46:14.655Z,14.43
2019-05-03T05:48:49.421Z,15.73
2019-05-03T05:51:18.580Z,18.83
2019-05-03T05:53:50.779Z,18.13
2019-05-03T05:56:39.257Z,10.07
2019-05-03T05:59:14.972Z,5.80
2019-05-03T06:01:52.966Z,6.10
2019-05-03T06:04:21.896Z,5.43
2019-05-03T06:07:18.943Z,4.97
2019-05-03T06:09:58.409Z,3.53
2019-05-03T06:12:40.896Z,6.20
2019-05-03T06:15:17.303Z,4.17
2019-05-03T06:17:50.961Z,5.53
2019-05-03T06:20:41.916Z,4.60
2019-05-03T06:23:22.264Z,4.67
2019-05-03T06:25:51.424Z,5.57
2019-05-03T06:28:27.036Z,4.90
2019-05-03T06:31:06.309Z,5.17
2019-05-03T06:33:35.352Z,7.47
2019-05-03T06:36:04.949Z,7.40
2019-05-03T06:38:42.417Z,5.63
2019-05-03T06:41:11.375Z,7.73
2019-05-03T06:43:45.069Z,5.47
2019-05-03T06:46:16.440Z,6.47
2019-05-03T06:48:44.478Z,3.87
2019-05-03T06:51:17.856Z,5.13
2019-05-03T06:53:49.054Z,4.17
2019-05-03T06:56:19.323Z,5.27
2019-05-03T06:58:48.091Z,30.47
2019-05-03T07:01:29.150Z,6.63
2019-05-03T07:04:05.881Z,5.07
2019-05-03T07:06:44.995Z,5.30
2019-05-03T07:09:18.767Z,4.30
2019-05-03T07:11:47.764Z,5.07
2019-05-03T07:14:16.749Z,5.20
2019-05-03T07:16:45.701Z,3.80
2019-05-03T07:19:14.843Z,2.47
2019-05-03T07:21:44.659Z,4.33
2019-05-03T07:24:14.643Z,4.17
2019-05-03T07:26:44.788Z,4.70
2019-05-03T07:29:15.226Z,3.70
2019-05-03T07:31:44.843Z,5.43
2019-05-03T07:34:18.909Z,6.30
2019-05-03T07:36:47.882Z,3.63
2019-05-03T07:39:16.884Z,8.63
2019-05-03T07:41:45.883Z,4.10
2019-05-03T07:44:15.276Z,8.80
2019-05-03T07:46:49.706Z,9.90
2019-05-03T07:49:18.729Z,7.10
2019-05-03T07:51:47.737Z,16.37
2019-05-03T07:54:16.711Z,10.40
2019-05-03T07:56:54.896Z,5.90
2019-05-03T07:59:31.226Z,10.23
2019-05-03T08:02:00.178Z,8.13
2019-05-03T08:04:30.889Z,7.70
2019-05-03T08:06:59.946Z,11.43
2019-05-03T08:09:29.146Z,12.13
2019-05-03T08:11:58.149Z,13.87
2019-05-03T08:14:27.119Z,7.00
2019-05-03T08:16:58.975Z,6.47
2019-05-03T08:19:27.894Z,4.97
2019-05-03T08:21:59.694Z,7.67
2019-05-03T08:24:28.674Z,6.80
2019-05-03T08:26:57.854Z,14.63
2019-05-03T08:29:29.322Z,10.73
2019-05-03T08:32:35.884Z,8.60
2019-05-03T08:35:25.194Z,8.20
2019-05-03T08:37:57.309Z,14.80
2019-05-03T08:40:28.855Z,16.80
2019-05-03T08:42:57.792Z,5.67
2019-05-03T08:45:26.793Z,9.93
2019-05-03T08:47:55.913Z,14.00
2019-05-03T08:50:25.683Z,15.23
2019-05-03T08:52:55.763Z,8.83
2019-05-03T08:55:25.098Z,16.20
2019-05-03T08:57:55.115Z,9.43
2019-05-03T09:00:26.075Z,8.63
2019-05-03T09:02:55.112Z,7.17
2019-05-03T09:05:25.004Z,7.17
2019-05-03T09:07:54.919Z,8.37
2019-05-03T09:10:35.390Z,5.93
2019-05-03T09:13:06.548Z,5.37
2019-05-03T09:15:39.276Z,17.97
2019-05-03T09:18:08.437Z,12.63
2019-05-03T09:20:37.395Z,7.83
2019-05-03T09:23:06.355Z,22.43
2019-05-03T09:25:35.780Z,19.43
2019-05-03T09:28:05.387Z,27.20
2019-05-03T09:30:38.650Z,21.33
2019-05-03T09:33:09.195Z,6.73
2019-05-03T09:35:38.444Z,13.03
2019-05-03T09:38:09.761Z,43.97
2019-05-03T09:40:39.637Z,5.97
2019-05-03T09:43:08.585Z,17.80
2019-05-03T09:45:37.583Z,13.90
2019-05-03T09:48:07.984Z,12.63
2019-05-03T09:50:38.003Z,10.20
2019-05-03T09:53:09.016Z,8.27
2019-05-03T09:55:40.207Z,40.03
2019-05-03T09:58:09.192Z,9.27
2019-05-03T10:00:38.224Z,28.03
2019-05-03T10:03:09.446Z,13.10
2019-05-03T10:05:42.438Z,16.03
2019-05-03T10:08:11.414Z,10.83
2019-05-03T10:10:58.225Z,8.80
2019-05-03T10:13:27.425Z,7.80
2019-05-03T10:15:56.476Z,5.47
2019-05-03T10:18:25.670Z,4.20
2019-05-03T10:20:56.120Z,17.23
2019-05-03T10:23:38.534Z,28.07
2019-05-03T10:26:08.614Z,6.03
2019-05-03T10:28:38.240Z,7.93
2019-05-03T10:31:07.879Z,6.00
2019-05-03T10:33:52.364Z,9.07
2019-05-03T10:36:21.382Z,7.37
2019-05-03T10:38:50.421Z,37.33
2019-05-03T10:41:19.572Z,557.20
2019-05-03T10:43:48.811Z,8.97
2019-05-03T10:46:17.831Z,81.53
2019-05-03T10:48:49.942Z,15.70
2019-05-03T10:51:19.322Z,13.70
2019-05-03T10:53:55.218Z,7.60
2019-05-03T10:56:49.585Z,3.83
2019-05-03T10:59:19.790Z,6.80
2019-05-03T11:02:08.318Z,8.87
2019-05-03T11:04:37.436Z,6.97
2019-05-03T11:07:07.810Z,16.40
2019-05-03T11:09:48.539Z,4.90
2019-05-03T11:12:07.827Z,6.47
2019-05-03T11:14:36.862Z,10.00
2019-05-03T11:17:05.923Z,4.67
2019-05-03T11:19:35.172Z,4.43
2019-05-03T11:22:05.419Z,5.80
2019-05-03T11:24:39.473Z,9.17
2019-05-03T11:27:16.766Z,43.07
2019-05-03T11:29:45.827Z,24.37
2019-05-03T11:32:32.265Z,47.93
2019-05-03T11:35:16.642Z,75.93
2019-05-03T11:37:49.897Z,57.10
2019-05-03T11:40:22.057Z,30.67
2019-05-03T11:42:52.168Z,106.90
2019-05-03T11:45:24.499Z,73.37
2019-05-03T11:47:55.081Z,89.73
2019-05-03T11:50:25.332Z,132.97
2019-05-03T11:52:55.446Z,70.13
2019-05-03T11:55:26.807Z,258.70
2019-05-03T11:57:56.609Z,555.43
2019-05-03T12:00:31.269Z,164.80
2019-05-03T12:03:17.931Z,276.73
2019-05-03T12:05:50.891Z,109.53
2019-05-03T12:08:19.924Z,223.73
2019-05-03T12:10:57.188Z,179.47
2019-05-03T12:13:29.566Z,145.50
2019-05-03T12:15:58.923Z,65.90
2019-05-03T12:18:28.526Z,37.20
2019-05-03T12:21:02.143Z,6.07
2019-05-03T12:23:36.171Z,22.67
2019-05-03T12:26:09.890Z,45.53
2019-05-03T12:28:35.437Z,112.13
2019-05-03T12:31:04.875Z,53.00
2019-05-03T12:33:35.394Z,6.27
2019-05-03T12:36:05.605Z,12.60
2019-05-03T12:38:35.102Z,49.17
2019-05-03T12:41:05.567Z,6.17
2019-05-03T12:43:35.061Z,6.67
2019-05-03T12:46:07.662Z,7.13
2019-05-03T12:48:37.880Z,290.93
2019-05-03T12:51:07.713Z,63.20
2019-05-03T12:53:37.558Z,16.33
2019-05-03T12:56:11.250Z,26.80
2019-05-03T12:59:07.046Z,102.20
2019-05-03T13:01:55.714Z,46.67
2019-05-03T13:04:28.797Z,149.03
2019-05-03T13:07:07.316Z,7.70
2019-05-03T13:09:38.396Z,75.03
2019-05-03T13:12:09.033Z,11.33
2019-05-03T13:14:38.152Z,52.10
2019-05-03T13:17:07.580Z,9.40
2019-05-03T13:19:36.954Z,61.10
2019-05-03T13:22:06.625Z,26.23
2019-05-03T13:24:35.840Z,23.60
2019-05-03T13:27:08.796Z,9.80
2019-05-03T13:29:38.336Z,84.27
2019-05-03T13:32:07.586Z,113.73
2019-05-03T13:34:37.291Z,11.93
2019-05-03T13:37:06.709Z,49.43
2019-05-03T13:39:36.170Z,34.23
2019-05-03T13:42:06.851Z,17.93
2019-05-03T13:44:38.648Z,55.90
2019-05-03T13:47:07.841Z,35.13
2019-05-03T13:49:37.171Z,15.30
2019-05-03T13:52:07.045Z,15.30
2019-05-03T13:54:36.717Z,24.37
2019-05-03T13:57:06.479Z,5.97
2019-05-03T13:59:35.804Z,40.03
2019-05-03T14:02:15.354Z,43.53
2019-05-03T14:04:52.548Z,35.87
2019-05-03T14:07:15.190Z,5.90
2019-05-03T14:09:45.325Z,14.97
2019-05-03T14:12:15.715Z,11.30
2019-05-03T14:14:56.461Z,33.20
2019-05-03T14:17:29.760Z,11.07
2019-05-03T14:20:22.526Z,8.83
2019-05-03T14:22:52.705Z,9.70
2019-05-03T14:25:24.706Z,5.93
2019-05-03T14:27:55.658Z,8.83
2019-05-03T14:30:25.431Z,7.63
2019-05-03T14:32:55.755Z,12.10
2019-05-03T14:35:28.875Z,7.43
2019-05-03T14:37:58.578Z,5.07
2019-05-03T14:40:28.454Z,18.83
2019-05-03T14:42:58.446Z,18.47
2019-05-03T14:45:28.636Z,38.47
2019-05-03T14:47:58.246Z,24.13
2019-05-03T14:50:30.281Z,4.93
2019-05-03T14:53:00.110Z,6.43
2019-05-03T14:55:41.226Z,6.50
2019-05-03T14:58:35.159Z,4.80
2019-05-03T15:01:12.426Z,5.00
2019-05-03T15:03:41.549Z,13.20
2019-05-03T15:06:10.851Z,16.30
2019-05-03T15:08:39.868Z,10.80
2019-05-03T15:11:09.168Z,13.47
2019-05-03T15:13:38.707Z,10.03
2019-05-03T15:16:08.164Z,14.20
2019-05-03T15:18:37.829Z,16.63
2019-05-03T15:21:06.842Z,7.80
2019-05-03T15:23:35.947Z,5.17
2019-05-03T15:26:05.248Z,6.83
2019-05-03T15:28:37.898Z,5.07
2019-05-03T15:31:06.997Z,11.57
2019-05-03T15:33:36.015Z,6.73
2019-05-03T15:36:05.146Z,8.07
2019-05-03T15:38:36.515Z,13.47
2019-05-03T15:41:05.631Z,8.40
2019-05-03T15:43:57.060Z,8.20
2019-05-03T15:47:09.383Z,11.93
2019-05-03T15:49:38.111Z,9.37
2019-05-03T15:52:07.316Z,9.10
2019-05-03T15:54:36.295Z,7.43
2019-05-03T15:57:05.445Z,14.83
2019-05-03T15:59:34.902Z,9.97
2019-05-03T16:02:04.641Z,7.00
2019-05-03T16:04:35.607Z,9.03
2019-05-03T16:07:06.233Z,23.33
2019-05-03T16:09:35.299Z,6.90
2019-05-03T16:12:05.100Z,8.27
2019-05-03T16:14:35.021Z,6.30
2019-05-03T16:17:04.507Z,5.70
2019-05-03T16:19:35.336Z,6.93
2019-05-03T16:22:04.877Z,8.90
2019-05-03T16:24:35.522Z,8.37
2019-05-03T16:27:16.923Z,6.27
2019-05-03T16:29:46.211Z,8.50
2019-05-03T16:32:15.841Z,8.03
2019-05-03T16:34:46.092Z,8.30
2019-05-03T16:37:15.235Z,6.43
2019-05-03T16:39:45.433Z,5.37
2019-05-03T16:42:17.450Z,5.33
2019-05-03T16:44:46.645Z,6.80
2019-05-03T16:47:16.733Z,7.03
2019-05-03T16:49:48.847Z,6.13
2019-05-03T16:52:18.141Z,10.33
2019-05-03T16:54:47.481Z,44.03
2019-05-03T16:57:17.513Z,68.07
2019-05-03T16:59:46.965Z,15.10
2019-05-03T17:02:17.386Z,9.63
2019-05-03T17:05:02.607Z,5.47
2019-05-03T17:07:36.227Z,8.47
2019-05-03T17:10:15.488Z,9.63
2019-05-03T17:12:45.441Z,11.20
2019-05-03T17:15:15.126Z,8.50
2019-05-03T17:17:45.157Z,14.77
2019-05-03T17:20:16.537Z,24.97
2019-05-03T17:22:46.417Z,10.30
2019-05-03T17:25:17.124Z,19.90
2019-05-03T17:27:49.397Z,21.30
2019-05-03T17:30:21.670Z,12.07
2019-05-03T17:32:50.768Z,48.90
2019-05-03T17:35:22.864Z,42.40
2019-05-03T17:37:51.978Z,21.53
2019-05-03T17:40:34.742Z,14.33
2019-05-03T17:43:14.658Z,20.40
2019-05-03T17:45:47.161Z,12.87
2019-05-03T17:48:19.944Z,21.37
2019-05-03T17:50:49.132Z,29.10
2019-05-03T17:53:54.554Z,15.50
2019-05-03T17:56:32.128Z,22.23
2019-05-03T17:59:26.168Z,24.90
2019-05-03T18:02:13.095Z,26.80
2019-05-03T18:05:05.279Z,31.57
2019-05-03T18:07:54.184Z,30.03
2019-05-03T18:10:27.565Z,27.80
2019-05-03T18:12:56.700Z,21.53
2019-05-03T18:15:26.268Z,131.90
2019-05-03T18:17:55.454Z,37.73
2019-05-03T18:20:25.583Z,21.07
2019-05-03T18:22:54.906Z,15.30
2019-05-03T18:25:26.742Z,26.60
2019-05-03T18:27:55.967Z,26.70
2019-05-03T18:30:25.080Z,30.43
2019-05-03T18:32:55.760Z,18.23
2019-05-03T18:35:28.506Z,27.07
2019-05-03T18:38:00.928Z,20.47
2019-05-03T18:40:31.622Z,21.93
2019-05-03T18:43:06.150Z,45.07
2019-05-03T18:45:54.586Z,19.63
2019-05-03T18:48:26.310Z,33.30
2019-05-03T18:50:56.048Z,931.37
2019-05-03T18:53:25.247Z,410.37
2019-05-03T18:55:55.220Z,380.00
2019-05-03T18:58:24.521Z,212.53
2019-05-03T19:00:54.887Z,744.37
2019-05-03T19:03:25.152Z,270.67
2019-05-03T19:05:57.200Z,266.47
2019-05-03T19:08:49.443Z,303.10
2019-05-03T19:11:36.785Z,549.83
2019-05-03T19:14:07.999Z,360.87
2019-05-03T19:17:05.090Z,515.90
2019-05-03T19:19:44.666Z,358.20
2019-05-03T19:22:15.383Z,350.30
2019-05-03T19:24:44.590Z,506.33
2019-05-03T19:27:14.400Z,445.90
2019-05-03T19:29:47.017Z,235.13
2019-05-03T19:32:15.999Z,233.73
2019-05-03T19:34:50.691Z,402.70
2019-05-03T19:37:18.516Z,348.03
2019-05-03T19:39:48.014Z,522.37
2019-05-03T19:42:18.849Z,299.63
2019-05-03T19:44:50.308Z,381.40
2019-05-03T19:47:19.467Z,188.13
2019-05-03T19:49:48.496Z,132.07
2019-05-03T19:52:21.007Z,96.20
2019-05-03T19:54:49.992Z,246.17
2019-05-03T19:57:21.873Z,131.03
2019-05-03T19:59:52.116Z,148.93
2019-05-03T20:02:37.671Z,141.10
2019-05-03T20:05:20.670Z,199.70
2019-05-03T20:08:21.183Z,525.40
2019-05-03T20:10:51.906Z,308.97
2019-05-03T20:13:31.925Z,164.80
2019-05-03T20:15:52.009Z,144.87
2019-05-03T20:18:24.108Z,100.20
2019-05-03T20:20:55.182Z,219.03
2019-05-03T20:23:25.091Z,263.57
2019-05-03T20:25:54.656Z,133.43
2019-05-03T20:28:24.715Z,106.43
2019-05-03T20:30:54.535Z,87.77
2019-05-03T20:33:24.591Z,74.57
2019-05-03T20:35:56.050Z,77.50
2019-05-03T20:38:26.294Z,71.07
2019-05-03T20:40:57.330Z,86.37
2019-05-03T20:44:00.447Z,59.20
2019-05-03T20:46:36.024Z,78.50
2019-05-03T20:49:07.568Z,95.00
2019-05-03T20:51:40.363Z,86.47
2019-05-03T20:54:09.458Z,55.03
2019-05-03T20:56:39.622Z,48.03
2019-05-03T20:59:08.634Z,218.57
2019-05-03T21:01:37.663Z,138.23
2019-05-03T21:04:06.932Z,171.50
2019-05-03T21:06:39.135Z,124.37
2019-05-03T21:09:08.376Z,96.83
2019-05-03T21:11:37.416Z,70.17
2019-05-03T21:14:06.366Z,223.63
2019-05-03T21:16:54.508Z,112.23
2019-05-03T21:19:47.091Z,132.13
2019-05-03T21:22:25.477Z,84.93
2019-05-03T21:25:00.389Z,97.00
2019-05-03T21:27:29.569Z,86.00
2019-05-03T21:29:59.614Z,118.77
2019-05-03T21:32:28.904Z,109.73
2019-05-03T21:35:01.186Z,90.57
2019-05-03T21:37:34.771Z,78.50
2019-05-03T21:40:05.154Z,57.70
2019-05-03T21:42:35.052Z,64.63
2019-05-03T21:45:04.705Z,50.57
2019-05-03T21:47:46.093Z,85.53
2019-05-03T21:50:19.069Z,54.23
2019-05-03T21:52:48.208Z,41.80
2019-05-03T21:55:18.378Z,45.50
2019-05-03T21:57:47.420Z,35.63
2019-05-03T22:00:19.248Z,29.50
2019-05-03T22:02:49.716Z,25.90
2019-05-03T22:05:20.021Z,24.50
2019-05-03T22:07:49.043Z,23.60
2019-05-03T22:10:18.208Z,29.00
2019-05-03T22:12:47.808Z,38.37
2019-05-03T22:15:31.641Z,47.87
2019-05-03T22:18:15.143Z,34.77
2019-05-03T22:21:05.717Z,36.43
2019-05-03T22:24:04.607Z,23.83
2019-05-03T22:26:55.110Z,29.93
2019-05-03T22:29:25.541Z,29.70
2019-05-03T22:31:57.916Z,29.70
2019-05-03T22:34:31.112Z,32.30
2019-05-03T22:37:00.028Z,31.87
2019-05-03T22:39:31.948Z,43.17
2019-05-03T22:42:01.012Z,38.03
2019-05-03T22:44:30.044Z,38.60
2019-05-03T22:46:59.267Z,36.93
2019-05-03T22:49:28.328Z,38.47
2019-05-03T22:51:57.356Z,39.83
2019-05-03T22:54:26.348Z,39.20
2019-05-03T22:56:56.555Z,42.03
2019-05-03T22:59:25.566Z,38.03
2019-05-03T23:01:57.573Z,42.27
2019-05-03T23:04:26.628Z,36.20
2019-05-03T23:06:55.876Z,32.17
2019-05-03T23:09:25.024Z,28.77
2019-05-03T23:11:55.224Z,31.60
2019-05-03T23:14:25.546Z,26.17
2019-05-03T23:16:55.002Z,23.37
2019-05-03T23:19:24.209Z,27.40
2019-05-03T23:22:12.363Z,26.07
2019-05-03T23:24:41.335Z,29.13
2019-05-03T23:27:10.363Z,36.03
2019-05-03T23:29:39.332Z,34.93
2019-05-03T23:32:08.458Z,32.73
2019-05-03T23:34:37.619Z,33.00
2019-05-03T23:37:06.683Z,40.57
2019-05-03T23:39:35.691Z,38.70
2019-05-03T23:42:05.438Z,52.67
2019-05-03T23:44:35.172Z,52.60
2019-05-03T23:47:14.533Z,65.70
2019-05-03T23:49:44.591Z,45.80
2019-05-03T23:52:35.950Z,36.77
2019-05-03T23:55:29.503Z,44.30
2019-05-03T23:57:59.368Z,37.93
